Time;durP1;ratioP1;P1;durP2;ratioP2;P2;SDS_P1;SDS_P2;PMS_P1;PMS_P2;Temp;Humidity;BMP_temperature;BMP_pressure;BME280_temperature;BME280_humidity;BME280_pressure;Samples;Min_cycle;Max_cycle;Signal;HPM_P1;HPM_P2
2021/01/19 00:00:27;;;;;;;14.90;6.18;;;3.70;99.90;;;;;;5053900;28;20049;-67
2021/01/19 00:02:53;;;;;;;12.20;5.95;;;3.70;99.90;;;;;;5053211;28;20555;-67
2021/01/19 00:05:20;;;;;;;22.15;7.47;;;3.70;99.90;;;;;;5053957;28;20082;-68
2021/01/19 00:07:46;;;;;;;14.85;6.35;;;3.80;99.90;;;;;;5053126;28;20041;-67
2021/01/19 00:10:13;;;;;;;17.95;6.30;;;3.90;99.90;;;;;;5053734;28;20415;-68
2021/01/19 00:12:39;;;;;;;11.82;5.55;;;3.90;99.90;;;;;;5036050;28;20049;-68
2021/01/19 00:15:07;;;;;;;14.13;5.05;;;4.10;99.90;;;;;;5033692;28;20091;-68
2021/01/19 00:17:35;;;;;;;13.95;4.43;;;4.10;99.90;;;;;;5033377;28;20483;-70
2021/01/19 00:20:03;;;;;;;10.90;3.78;;;4.20;99.90;;;;;;5034088;28;20125;-68
2021/01/19 00:22:29;;;;;;;10.32;4.18;;;4.30;99.90;;;;;;5049130;28;20049;-68
2021/01/19 00:24:56;;;;;;;;;;;4.30;99.90;;;;;;5052062;28;20110;-68
2021/01/19 00:27:22;;;;;;;11.57;3.58;;;4.40;99.90;;;;;;5033893;28;20020;-68
2021/01/19 00:29:49;;;;;;;7.28;3.13;;;4.50;99.90;;;;;;5033143;28;20124;-68
2021/01/19 00:32:15;;;;;;;7.93;3.42;;;4.50;99.90;;;;;;5046538;28;20045;-68
2021/01/19 00:34:42;;;;;;;9.57;3.10;;;4.60;99.90;;;;;;5052847;28;20084;-68
2021/01/19 00:37:09;;;;;;;8.75;2.97;;;4.60;99.90;;;;;;5052944;28;20052;-67
2021/01/19 00:39:35;;;;;;;8.95;3.30;;;4.50;99.90;;;;;;5052728;28;20080;-69
2021/01/19 00:42:02;;;;;;;6.40;2.58;;;4.60;99.90;;;;;;5053135;28;20367;-69
2021/01/19 00:44:28;;;;;;;8.38;2.83;;;4.60;99.90;;;;;;5085981;28;20505;-67
2021/01/19 00:46:55;;;;;;;8.48;3.17;;;4.50;99.90;;;;;;5053033;28;20049;-68
2021/01/19 00:49:21;;;;;;;7.05;3.22;;;4.60;99.90;;;;;;5053200;28;20049;-67
2021/01/19 00:51:49;;;;;;;13.18;3.60;;;4.50;99.90;;;;;;5043667;28;20046;-68
2021/01/19 00:54:16;;;;;;;8.48;3.22;;;4.40;99.90;;;;;;5053391;28;20076;-68
2021/01/19 00:56:43;;;;;;;11.38;4.43;;;4.40;99.90;;;;;;5068122;28;20095;-67
2021/01/19 00:59:14;;;;;;;10.93;4.50;;;4.20;99.90;;;;;;5068394;28;20075;-68
2021/01/19 01:01:46;;;;;;;11.88;5.72;;;4.10;99.90;;;;;;5044264;28;20464;-68
2021/01/19 01:04:12;;;;;;;14.32;5.70;;;3.90;99.90;;;;;;5033150;28;20128;-67
2021/01/19 01:06:39;;;;;;;;;;;3.80;99.90;;;;;;5032598;28;20049;-67
2021/01/19 01:09:07;;;;;;;10.45;5.65;;;3.60;99.90;;;;;;5032785;28;19967;-67
2021/01/19 01:11:39;;;;;;;16.15;5.80;;;3.70;99.90;;;;;;5036421;28;20048;-67
2021/01/19 01:14:06;;;;;;;10.30;6.07;;;3.60;99.90;;;;;;5052818;28;20049;-67
2021/01/19 01:16:34;;;;;;;16.02;6.15;;;3.60;99.90;;;;;;5052696;28;20040;-67
2021/01/19 01:19:01;;;;;;;15.80;7.05;;;3.50;99.90;;;;;;5052823;28;20052;-67
2021/01/19 01:21:27;;;;;;;12.00;5.97;;;3.50;99.90;;;;;;5050476;28;20080;-67
2021/01/19 01:23:54;;;;;;;12.10;6.22;;;3.50;99.90;;;;;;5031886;28;20491;-67
2021/01/19 01:26:23;;;;;;;19.40;6.18;;;3.40;99.90;;;;;;5032315;28;20403;-69
2021/01/19 01:28:49;;;;;;;19.58;7.88;;;3.40;99.90;;;;;;5032450;28;20049;-67
2021/01/19 01:31:20;;;;;;;12.88;7.03;;;3.30;99.90;;;;;;5032613;28;20049;-68
2021/01/19 01:33:46;;;;;;;20.58;6.88;;;3.30;99.90;;;;;;5032431;28;20494;-67
2021/01/19 01:36:13;;;;;;;19.52;8.45;;;3.30;99.90;;;;;;5032313;28;20482;-67
2021/01/19 01:38:39;;;;;;;12.13;7.22;;;3.30;99.90;;;;;;5031876;28;20122;-67
2021/01/19 01:41:13;;;;;;;22.00;8.02;;;3.20;99.90;;;;;;5033267;28;20041;-67
2021/01/19 01:43:40;;;;;;;22.15;7.88;;;3.20;99.90;;;;;;5032017;28;20490;-67
2021/01/19 01:46:10;;;;;;;11.93;7.80;;;3.20;99.90;;;;;;5032011;28;20076;-68
2021/01/19 01:48:37;;;;;;;13.25;7.03;;;3.10;99.90;;;;;;5031825;28;20042;-67
2021/01/19 01:51:04;;;;;;;16.35;7.85;;;3.10;99.90;;;;;;5032381;28;20045;-67
2021/01/19 01:53:30;;;;;;;13.38;7.20;;;3.10;99.90;;;;;;5032133;28;20405;-67
2021/01/19 01:55:57;;;;;;;13.35;6.65;;;3.10;99.90;;;;;;5031625;28;20569;-69
2021/01/19 01:58:25;;;;;;;13.82;7.20;;;3.10;99.90;;;;;;5032493;28;20072;-67
2021/01/19 02:00:54;;;;;;;11.82;6.68;;;3.10;99.90;;;;;;5031711;28;20068;-68
2021/01/19 02:03:20;;;;;;;11.02;6.55;;;3.00;99.90;;;;;;5019274;28;20041;-67
2021/01/19 02:05:47;;;;;;;16.35;6.80;;;3.00;99.90;;;;;;5029589;28;20116;-67
2021/01/19 02:08:24;;;;;;;16.55;7.18;;;3.00;99.90;;;;;;5047631;28;20064;-67
2021/01/19 02:11:03;;;;;;;17.75;7.30;;;3.00;99.90;;;;;;5031449;28;20049;-67
2021/01/19 02:13:40;;;;;;;13.05;6.60;;;3.00;99.90;;;;;;5023403;28;20052;-67
2021/01/19 02:16:19;;;;;;;20.38;6.38;;;3.00;99.90;;;;;;5032033;28;20045;-67
2021/01/19 02:18:53;;;;;;;19.00;7.55;;;2.90;99.90;;;;;;5031371;28;20478;-67
2021/01/19 02:21:56;;;;;;;15.82;6.28;;;2.90;99.90;;;;;;5032830;28;20444;-67
2021/01/19 02:24:32;;;;;;;11.73;5.80;;;2.90;99.90;;;;;;5029714;28;20487;-67
2021/01/19 02:27:12;;;;;;;13.63;5.95;;;2.90;99.90;;;;;;5031535;28;20445;-67
2021/01/19 02:30:08;;;;;;;17.88;6.22;;;2.90;99.90;;;;;;5032062;28;20049;-67
2021/01/19 02:32:44;;;;;;;10.23;5.60;;;2.90;99.90;;;;;;5047171;28;20052;-67
2021/01/19 02:35:15;;;;;;;16.10;6.53;;;2.90;99.90;;;;;;5051738;28;20577;-67
2021/01/19 02:37:51;;;;;;;13.90;6.00;;;2.90;99.90;;;;;;5051280;28;20450;-68
2021/01/19 02:40:20;;;;;;;13.90;5.38;;;2.90;99.90;;;;;;5012213;28;20096;-68
2021/01/19 02:42:55;;;;;;;12.70;5.53;;;2.90;99.90;;;;;;5044310;28;20048;-67
2021/01/19 02:45:25;;;;;;;12.07;4.80;;;2.90;99.90;;;;;;5051736;28;20371;-66
2021/01/19 02:47:52;;;;;;;8.55;4.50;;;3.00;99.90;;;;;;5050932;28;20048;-67
2021/01/19 02:50:18;;;;;;;12.73;5.72;;;3.00;99.90;;;;;;5051451;28;20485;-67
2021/01/19 02:52:47;;;;;;;10.20;5.30;;;3.00;99.90;;;;;;5035121;28;20045;-67
2021/01/19 02:55:14;;;;;;;7.97;4.72;;;3.10;99.90;;;;;;5031798;28;20392;-67
2021/01/19 02:58:09;;;;;;;9.50;5.25;;;3.10;99.90;;;;;;5032611;28;20052;-72
2021/01/19 03:00:50;;;;;;;10.43;4.78;;;3.10;99.90;;;;;;5047956;28;20042;-67
2021/01/19 03:03:18;;;;;;;15.13;5.93;;;3.00;99.90;;;;;;5054828;28;20405;-66
2021/01/19 03:05:46;;;;;;;11.30;5.75;;;3.00;99.90;;;;;;5054481;28;20051;-67
2021/01/19 03:08:14;;;;;;;19.60;6.13;;;3.00;99.90;;;;;;5054934;28;20053;-67
2021/01/19 03:10:43;;;;;;;15.77;6.07;;;3.00;99.90;;;;;;5054713;28;20048;-67
2021/01/19 03:13:14;;;;;;;15.70;5.65;;;3.00;99.90;;;;;;5036018;28;20045;-67
2021/01/19 03:15:41;;;;;;;13.90;5.68;;;3.00;99.90;;;;;;5034939;28;20042;-67
2021/01/19 03:18:08;;;;;;;12.93;5.82;;;3.00;99.90;;;;;;5034847;28;20051;-67
2021/01/19 03:20:36;;;;;;;13.73;5.55;;;3.00;99.90;;;;;;5035009;28;20386;-67
2021/01/19 03:23:03;;;;;;;13.10;6.15;;;3.00;99.90;;;;;;5051918;28;20049;-67
2021/01/19 03:25:29;;;;;;;17.10;6.97;;;3.00;99.90;;;;;;5054891;28;20044;-67
2021/01/19 03:27:55;;;;;;;;;;;3.00;99.90;;;;;;5054772;28;20468;-67
2021/01/19 03:30:22;;;;;;;14.13;5.82;;;3.00;99.90;;;;;;5054132;28;19979;-68
2021/01/19 03:32:49;;;;;;;13.00;5.88;;;2.90;99.90;;;;;;5053743;28;20053;-67
2021/01/19 03:35:15;;;;;;;10.73;6.18;;;2.90;99.90;;;;;;5053949;28;20033;-67
2021/01/19 03:37:43;;;;;;;16.67;6.32;;;2.80;99.90;;;;;;5054935;28;20056;-68
2021/01/19 03:40:11;;;;;;;12.75;6.15;;;2.80;99.90;;;;;;5054286;28;20053;-67
2021/01/19 03:42:39;;;;;;;18.25;6.97;;;2.80;99.90;;;;;;5040579;28;20073;-67
2021/01/19 03:45:07;;;;;;;13.48;6.10;;;2.80;99.90;;;;;;5049504;28;20041;-67
2021/01/19 03:47:35;;;;;;;10.45;5.70;;;2.80;99.90;;;;;;5034670;28;20076;-67
2021/01/19 03:50:03;;;;;;;12.05;5.07;;;2.80;99.90;;;;;;5033733;28;20049;-68
2021/01/19 03:52:30;;;;;;;15.18;5.75;;;2.70;99.90;;;;;;5034456;28;20044;-67
2021/01/19 03:54:57;;;;;;;11.30;5.28;;;2.70;99.90;;;;;;5034001;28;20045;-67
2021/01/19 03:57:23;;;;;;;12.18;5.55;;;2.70;99.90;;;;;;5034539;28;20075;-67
2021/01/19 03:59:50;;;;;;;8.52;4.82;;;2.70;99.90;;;;;;5033851;28;20052;-67
2021/01/19 04:02:16;;;;;;;;;;;2.70;99.90;;;;;;5037033;28;20055;-67
2021/01/19 04:04:42;;;;;;;12.82;5.38;;;2.60;99.90;;;;;;5034144;28;19925;-67
2021/01/19 04:07:09;;;;;;;14.88;5.70;;;2.50;99.90;;;;;;5033795;28;20046;-67
2021/01/19 04:09:35;;;;;;;14.02;4.93;;;2.50;99.90;;;;;;5033938;28;20430;-68
2021/01/19 04:12:03;;;;;;;14.88;5.10;;;2.50;99.90;;;;;;5038634;28;20481;-68
2021/01/19 04:14:29;;;;;;;11.95;4.70;;;2.50;99.90;;;;;;5033909;28;20050;-68
2021/01/19 04:16:56;;;;;;;12.80;5.90;;;2.50;99.90;;;;;;5033418;28;20079;-66
2021/01/19 04:19:22;;;;;;;10.52;5.20;;;2.50;99.90;;;;;;5034097;28;20052;-67
2021/01/19 04:21:49;;;;;;;9.00;4.65;;;2.50;99.90;;;;;;5038397;28;20045;-67
2021/01/19 04:24:15;;;;;;;;;;;2.50;99.90;;;;;;5086314;28;20049;-67
2021/01/19 04:26:41;;;;;;;9.48;4.40;;;2.50;99.90;;;;;;5053746;28;19921;-67
2021/01/19 04:29:09;;;;;;;14.60;3.75;;;2.50;99.90;;;;;;5053098;28;20453;-68
2021/01/19 04:31:35;;;;;;;8.55;4.22;;;2.50;99.90;;;;;;5052226;28;20044;-68
2021/01/19 04:34:02;;;;;;;;;;;2.60;99.90;;;;;;5052734;28;20486;-67
2021/01/19 04:36:29;;;;;;;8.48;3.75;;;2.70;99.90;;;;;;5053561;28;19963;-67
2021/01/19 04:38:56;;;;;;;12.25;4.25;;;2.70;99.90;;;;;;5053065;28;20045;-67
2021/01/19 04:41:23;;;;;;;10.23;3.63;;;2.70;99.90;;;;;;5053514;28;20045;-67
2021/01/19 04:43:50;;;;;;;13.77;4.88;;;2.70;99.90;;;;;;5033420;28;20049;-67
2021/01/19 04:46:19;;;;;;;8.45;3.42;;;2.70;99.90;;;;;;5033395;28;20056;-67
2021/01/19 04:48:47;;;;;;;9.25;4.18;;;2.80;99.90;;;;;;5065621;28;20487;-68
2021/01/19 04:51:17;;;;;;;8.13;4.38;;;2.90;99.90;;;;;;5033373;28;20049;-67
2021/01/19 04:53:58;;;;;;;6.22;3.95;;;2.90;99.90;;;;;;5050662;28;20047;-67
2021/01/19 04:56:27;;;;;;;8.73;4.30;;;2.90;99.90;;;;;;5052976;28;20432;-66
2021/01/19 04:58:55;;;;;;;9.07;4.40;;;2.90;99.90;;;;;;5052175;28;20548;-69
2021/01/19 05:01:38;;;;;;;11.55;5.15;;;2.90;99.90;;;;;;5052827;28;20053;-68
2021/01/19 05:04:31;;;;;;;10.07;4.95;;;2.80;99.90;;;;;;5013056;28;20053;-69
2021/01/19 05:07:33;;;;;;;12.05;4.68;;;2.90;99.90;;;;;;5012586;28;20042;-68
2021/01/19 05:10:12;;;;;;;8.60;4.60;;;2.80;99.90;;;;;;5012734;28;20108;-68
2021/01/19 05:12:41;;;;;;;10.40;4.80;;;2.80;99.90;;;;;;5022633;28;20585;-69
2021/01/19 05:15:09;;;;;;;9.00;4.95;;;2.80;99.90;;;;;;5032166;28;20096;-68
2021/01/19 05:17:37;;;;;;;8.15;4.35;;;2.80;99.90;;;;;;5033089;28;20052;-68
2021/01/19 05:20:05;;;;;;;9.20;4.75;;;2.70;99.90;;;;;;5031953;28;20076;-68
2021/01/19 05:22:33;;;;;;;9.75;4.93;;;2.70;99.90;;;;;;5036815;28;20073;-68
2021/01/19 05:24:59;;;;;;;;;;;2.70;99.90;;;;;;5052072;28;20049;-68
2021/01/19 05:27:26;;;;;;;10.98;5.80;;;2.70;99.90;;;;;;5052513;28;20011;-68
2021/01/19 05:29:59;;;;;;;;;;;2.60;99.90;;;;;;5052537;28;20078;-69
2021/01/19 05:32:39;;;;;;;11.48;5.90;;;2.60;99.90;;;;;;5052012;28;20004;-68
2021/01/19 05:35:16;;;;;;;9.70;4.72;;;2.60;99.90;;;;;;5064321;28;20053;-69
2021/01/19 05:37:55;;;;;;;8.07;5.25;;;2.50;99.90;;;;;;5032550;28;20185;-69
2021/01/19 05:40:21;;;;;;;14.48;5.57;;;2.50;99.90;;;;;;5032159;28;20482;-68
2021/01/19 05:42:48;;;;;;;10.90;5.95;;;2.50;99.90;;;;;;5035316;28;20048;-68
2021/01/19 05:45:14;;;;;;;;;;;2.40;99.90;;;;;;5052300;28;20449;-69
2021/01/19 05:47:44;;;;;;;14.30;6.78;;;2.40;99.90;;;;;;5052097;28;19927;-68
2021/01/19 05:50:12;;;;;;;13.05;4.93;;;2.40;99.90;;;;;;5051727;28;20733;-68
2021/01/19 05:52:38;;;;;;;10.90;5.22;;;2.50;99.90;;;;;;5068682;28;20072;-68
2021/01/19 05:55:06;;;;;;;13.55;5.35;;;2.50;99.90;;;;;;5040308;28;20065;-68
2021/01/19 05:57:32;;;;;;;9.98;5.30;;;2.50;99.90;;;;;;5030333;28;20041;-68
2021/01/19 06:00:01;;;;;;;14.40;5.40;;;2.50;99.90;;;;;;5029979;28;20046;-68
2021/01/19 06:02:36;;;;;;;9.45;5.22;;;2.60;99.90;;;;;;5026283;28;20045;-68
2021/01/19 06:05:10;;;;;;;11.93;4.93;;;2.60;99.90;;;;;;5015514;28;20034;-67
2021/01/19 06:07:38;;;;;;;10.02;4.60;;;2.60;99.90;;;;;;5032201;28;20069;-67
2021/01/19 06:10:10;;;;;;;8.63;5.15;;;2.60;99.90;;;;;;5031700;28;20046;-67
2021/01/19 06:12:36;;;;;;;10.80;5.35;;;2.70;99.90;;;;;;5031368;28;20045;-67
2021/01/19 06:15:03;;;;;;;;;;;2.70;99.90;;;;;;5031581;28;20052;-67
2021/01/19 06:17:30;;;;;;;8.82;5.43;;;2.70;99.90;;;;;;5031530;28;20362;-67
2021/01/19 06:20:00;;;;;;;7.75;4.38;;;2.70;99.90;;;;;;5030973;28;20037;-72
2021/01/19 06:22:28;;;;;;;10.63;4.75;;;2.70;99.90;;;;;;5030433;28;20141;-68
2021/01/19 06:24:56;;;;;;;7.28;4.93;;;2.70;99.90;;;;;;5040139;28;20132;-72
2021/01/19 06:27:28;;;;;;;10.65;4.90;;;2.80;99.90;;;;;;5033629;28;20072;-68
2021/01/19 06:30:10;;;;;;;10.35;5.47;;;2.80;99.90;;;;;;5044721;28;20053;-72
2021/01/19 06:32:38;;;;;;;11.52;5.57;;;2.80;99.90;;;;;;5019484;28;20045;-68
2021/01/19 06:35:14;;;;;;;12.18;5.22;;;2.80;99.90;;;;;;5037560;28;20037;-68
2021/01/19 06:37:42;;;;;;;10.32;5.32;;;2.70;99.90;;;;;;5031723;28;20124;-69
2021/01/19 06:40:12;;;;;;;11.27;5.35;;;2.80;99.90;;;;;;5023488;28;20407;-69
2021/01/19 06:42:38;;;;;;;10.95;5.55;;;2.80;99.90;;;;;;5050071;28;20141;-69
2021/01/19 06:45:07;;;;;;;11.77;4.90;;;2.80;99.90;;;;;;5034520;28;20060;-68
2021/01/19 06:47:40;;;;;;;12.43;5.38;;;2.80;99.90;;;;;;5035634;28;20132;-69
2021/01/19 06:50:09;;;;;;;11.98;5.03;;;2.80;99.90;;;;;;5034901;28;20120;-68
2021/01/19 06:52:41;;;;;;;16.77;5.90;;;2.80;99.90;;;;;;5035362;28;20430;-68
2021/01/19 06:55:31;;;;;;;11.05;5.38;;;2.80;99.90;;;;;;5045185;28;20037;-68
2021/01/19 06:58:32;;;;;;;7.57;5.05;;;2.70;99.90;;;;;;5015130;28;20037;-68
2021/01/19 07:01:00;;;;;;;11.98;5.40;;;2.80;99.90;;;;;;5020209;28;20064;-69
2021/01/19 07:03:27;;;;;;;13.93;5.20;;;2.80;99.90;;;;;;5034947;28;20041;-68
2021/01/19 07:05:55;;;;;;;11.32;6.22;;;2.80;99.90;;;;;;5039791;28;20048;-68
2021/01/19 07:08:55;;;;;;;12.38;5.70;;;2.80;99.90;;;;;;5039032;28;20095;-69
2021/01/19 07:12:07;;;;;;;14.27;5.68;;;2.80;99.90;;;;;;5024245;28;20061;-69
2021/01/19 07:14:42;;;;;;;13.27;5.82;;;2.70;99.90;;;;;;5022923;28;20052;-68
2021/01/19 07:17:11;;;;;;;12.93;6.72;;;2.70;99.90;;;;;;5039905;28;20493;-69
2021/01/19 07:19:45;;;;;;;10.63;5.03;;;2.70;99.90;;;;;;5033252;28;20453;-70
2021/01/19 07:22:31;;;;;;;13.30;6.28;;;2.70;99.90;;;;;;5033558;28;20053;-70
2021/01/19 07:24:57;;;;;;;11.57;6.13;;;2.70;99.90;;;;;;5029775;28;20160;-69
2021/01/19 07:27:27;;;;;;;12.57;6.47;;;2.60;99.90;;;;;;5047226;28;20601;-67
2021/01/19 07:29:54;;;;;;;13.90;6.32;;;2.70;99.90;;;;;;5037471;28;20037;-69
2021/01/19 07:32:24;;;;;;;9.55;6.00;;;2.60;99.90;;;;;;5034167;28;20128;-68
2021/01/19 07:34:51;;;;;;;11.85;6.57;;;2.60;99.90;;;;;;5015052;28;20450;-68
2021/01/19 07:37:29;;;;;;;12.55;7.15;;;2.60;99.90;;;;;;5031338;28;20029;-69
2021/01/19 07:39:56;;;;;;;13.23;7.20;;;2.50;99.90;;;;;;5034957;28;20126;-68
2021/01/19 07:42:22;;;;;;;;;;;2.50;99.90;;;;;;5044387;28;20572;-69
2021/01/19 07:44:57;;;;;;;9.18;6.03;;;2.40;99.90;;;;;;5054771;28;19920;-68
2021/01/19 07:47:34;;;;;;;12.75;7.63;;;2.40;99.90;;;;;;5053629;28;20446;-68
2021/01/19 07:50:06;;;;;;;16.92;7.22;;;2.30;99.90;;;;;;5043486;28;20044;-73
2021/01/19 07:52:37;;;;;;;15.80;7.82;;;2.30;99.90;;;;;;5042937;28;20430;-68
2021/01/19 07:55:19;;;;;;;17.40;7.43;;;2.30;99.90;;;;;;5043501;28;20036;-67
2021/01/19 07:57:47;;;;;;;16.90;8.57;;;2.30;99.90;;;;;;5069855;28;20048;-68
2021/01/19 08:00:21;;;;;;;18.40;7.88;;;2.30;99.90;;;;;;5051938;28;20579;-69
2021/01/19 08:02:47;;;;;;;15.95;8.25;;;2.30;99.90;;;;;;5040638;28;20034;-68
2021/01/19 08:05:14;;;;;;;;;;;2.30;99.90;;;;;;5039021;28;20065;-69
2021/01/19 08:07:42;;;;;;;19.10;8.25;;;2.30;99.90;;;;;;5033856;28;19927;-68
2021/01/19 08:10:19;;;;;;;13.15;7.80;;;2.30;99.90;;;;;;5037871;28;20413;-68
2021/01/19 08:12:48;;;;;;;18.08;7.88;;;2.30;99.90;;;;;;5040170;28;20052;-70
2021/01/19 08:15:22;;;;;;;16.75;8.40;;;2.30;99.90;;;;;;5046083;28;20033;-69
2021/01/19 08:17:53;;;;;;;17.92;8.75;;;2.30;99.90;;;;;;5039353;28;20087;-68
2021/01/19 08:20:24;;;;;;;18.92;8.77;;;2.20;99.90;;;;;;5036605;28;20126;-68
2021/01/19 08:22:51;;;;;;;14.57;8.48;;;2.20;99.90;;;;;;5039923;28;20441;-69
2021/01/19 08:25:28;;;;;;;11.70;7.75;;;2.20;99.90;;;;;;5033083;28;20120;-68
2021/01/19 08:27:58;;;;;;;15.77;7.65;;;2.20;99.90;;;;;;5034080;28;20045;-68
2021/01/19 08:30:27;;;;;;;20.88;8.13;;;2.20;99.90;;;;;;5034260;28;21343;-68
2021/01/19 08:32:55;;;;;;;14.75;8.70;;;2.20;99.90;;;;;;5038248;28;20125;-69
2021/01/19 08:35:22;;;;;;;15.75;7.75;;;2.30;99.90;;;;;;5033084;28;20064;-68
2021/01/19 08:37:53;;;;;;;16.17;8.52;;;2.30;99.90;;;;;;5033663;28;20046;-68
2021/01/19 08:40:22;;;;;;;19.25;8.40;;;2.30;99.90;;;;;;5034649;28;20520;-68
2021/01/19 08:42:49;;;;;;;14.23;7.90;;;2.20;99.90;;;;;;5047029;28;20069;-68
2021/01/19 08:45:28;;;;;;;19.73;7.70;;;2.30;99.90;;;;;;5032454;28;20087;-68
2021/01/19 08:47:57;;;;;;;15.82;8.10;;;2.20;99.90;;;;;;5034892;28;20067;-68
2021/01/19 08:50:25;;;;;;;13.10;7.93;;;2.20;99.90;;;;;;5048432;28;20116;-69
2021/01/19 08:52:52;;;;;;;13.35;8.50;;;2.10;99.90;;;;;;5033453;28;20041;-68
2021/01/19 08:55:21;;;;;;;17.33;8.82;;;2.10;99.90;;;;;;5032675;28;20033;-68
2021/01/19 08:57:54;;;;;;;16.65;9.32;;;2.20;99.90;;;;;;5064679;28;20136;-68
2021/01/19 09:00:25;;;;;;;16.35;9.35;;;2.10;99.90;;;;;;5034719;28;20064;-69
2021/01/19 09:02:53;;;;;;;18.13;9.35;;;2.10;99.90;;;;;;5037459;28;20335;-69
2021/01/19 09:05:25;;;;;;;12.70;8.32;;;2.10;99.90;;;;;;5032394;28;20525;-68
2021/01/19 09:07:51;;;;;;;13.25;8.73;;;2.10;99.90;;;;;;5032492;28;20041;-68
2021/01/19 09:10:23;;;;;;;17.95;8.80;;;2.00;99.90;;;;;;5032090;28;20085;-69
2021/01/19 09:12:50;;;;;;;16.65;9.23;;;2.00;99.90;;;;;;5033040;28;20045;-69
2021/01/19 09:15:17;;;;;;;14.80;9.57;;;2.00;99.90;;;;;;5050684;28;20048;-69
2021/01/19 09:17:52;;;;;;;20.70;9.73;;;2.10;99.90;;;;;;5038326;28;20083;-69
2021/01/19 09:20:19;;;;;;;15.55;9.27;;;2.00;99.90;;;;;;5032216;28;20169;-70
2021/01/19 09:22:45;;;;;;;;;;;2.00;99.90;;;;;;5033141;28;20056;-69
2021/01/19 09:25:12;;;;;;;12.68;8.00;;;2.00;99.90;;;;;;5032206;28;19970;-69
2021/01/19 09:27:40;;;;;;;21.23;9.35;;;2.00;99.90;;;;;;5033506;28;20247;-69
2021/01/19 09:30:09;;;;;;;14.35;9.00;;;2.00;99.90;;;;;;5047767;28;20382;-72
2021/01/19 09:32:38;;;;;;;20.08;10.77;;;2.00;99.90;;;;;;5052787;28;20044;-69
2021/01/19 09:35:06;;;;;;;17.52;9.23;;;2.00;99.90;;;;;;5051938;28;20041;-70
2021/01/19 09:37:33;;;;;;;13.70;9.93;;;2.10;99.90;;;;;;5046207;28;20041;-69
2021/01/19 09:40:01;;;;;;;9.52;7.53;;;2.00;99.90;;;;;;5048602;28;20071;-69
2021/01/19 09:42:28;;;;;;;15.75;8.45;;;2.10;99.90;;;;;;5044425;28;20045;-69
2021/01/19 09:44:55;;;;;;;14.73;8.63;;;2.10;99.90;;;;;;5052562;28;20041;-69
2021/01/19 09:47:25;;;;;;;14.45;8.63;;;2.20;99.90;;;;;;5044274;28;20076;-69
2021/01/19 09:49:52;;;;;;;12.15;8.13;;;2.20;99.90;;;;;;5052140;28;20065;-69
2021/01/19 09:52:30;;;;;;;12.57;7.72;;;2.10;99.90;;;;;;5046463;28;20037;-69
2021/01/19 09:55:10;;;;;;;12.05;9.50;;;2.20;99.90;;;;;;5032413;28;20367;-69
2021/01/19 09:57:38;;;;;;;15.15;9.75;;;2.10;99.90;;;;;;5031666;28;20053;-69
2021/01/19 10:00:05;;;;;;;;;;;2.20;99.90;;;;;;5033432;28;20037;-69
2021/01/19 10:02:39;;;;;;;10.45;7.10;;;2.30;99.90;;;;;;5050327;28;19923;-69
2021/01/19 10:05:08;;;;;;;12.05;7.68;;;2.30;99.90;;;;;;5031936;28;20037;-69
2021/01/19 10:07:35;;;;;;;12.40;7.05;;;2.30;99.90;;;;;;5032491;28;20044;-69
2021/01/19 10:10:10;;;;;;;15.73;7.95;;;2.30;99.90;;;;;;5040277;28;20052;-68
2021/01/19 10:12:37;;;;;;;19.20;7.70;;;2.30;99.90;;;;;;5052995;28;20470;-68
2021/01/19 10:15:06;;;;;;;16.48;8.23;;;2.30;99.90;;;;;;5032243;28;20041;-68
2021/01/19 10:17:33;;;;;;;15.45;8.18;;;2.20;99.90;;;;;;5030285;28;20052;-69
2021/01/19 10:20:08;;;;;;;16.15;10.23;;;2.10;99.90;;;;;;5031573;28;20131;-70
2021/01/19 10:22:38;;;;;;;28.98;19.80;;;2.10;99.90;;;;;;5035605;28;20045;-69
2021/01/19 10:25:08;;;;;;;15.63;7.90;;;2.10;99.90;;;;;;5032483;28;20497;-69
2021/01/19 10:27:42;;;;;;;17.13;8.60;;;2.00;99.90;;;;;;5037619;28;20382;-69
2021/01/19 10:30:12;;;;;;;14.67;8.07;;;2.10;99.90;;;;;;5016130;28;20041;-73
2021/01/19 10:32:48;;;;;;;14.43;9.50;;;2.10;99.90;;;;;;5045614;28;20053;-69
2021/01/19 10:35:23;;;;;;;17.42;8.93;;;2.10;99.90;;;;;;5031571;28;20467;-69
2021/01/19 10:37:53;;;;;;;27.63;14.55;;;2.10;99.90;;;;;;5032377;28;20421;-69
2021/01/19 10:40:20;;;;;;;32.58;17.23;;;2.10;99.90;;;;;;5032153;28;20041;-69
2021/01/19 10:42:47;;;;;;;16.75;8.82;;;2.10;99.90;;;;;;5035785;28;20120;-69
2021/01/19 10:45:26;;;;;;;21.85;9.07;;;2.10;99.90;;;;;;5066887;28;20052;-69
2021/01/19 10:47:53;;;;;;;15.65;8.80;;;2.10;99.90;;;;;;5031187;28;20382;-68
2021/01/19 10:50:22;;;;;;;35.75;21.50;;;2.20;99.90;;;;;;5041511;28;20049;-69
2021/01/19 10:52:57;;;;;;;25.02;14.98;;;2.20;99.90;;;;;;5031735;28;20033;-68
2021/01/19 10:55:25;;;;;;;14.70;9.55;;;2.10;99.90;;;;;;5031394;28;20048;-69
2021/01/19 10:57:55;;;;;;;41.40;21.25;;;2.00;99.90;;;;;;5051455;28;20120;-68
2021/01/19 11:00:23;;;;;;;30.48;19.55;;;2.00;99.90;;;;;;5049285;28;20045;-68
2021/01/19 11:02:50;;;;;;;17.83;9.05;;;2.10;99.90;;;;;;5012298;28;20050;-68
2021/01/19 11:05:16;;;;;;;15.25;7.55;;;2.20;99.90;;;;;;5011517;28;20135;-69
2021/01/19 11:07:45;;;;;;;12.18;7.82;;;2.20;99.90;;;;;;5017028;28;20494;-69
2021/01/19 11:10:14;;;;;;;9.80;5.88;;;2.30;99.90;;;;;;5030979;28;20068;-69
2021/01/19 11:12:41;;;;;;;12.73;5.63;;;2.30;99.90;;;;;;5031058;28;20038;-68
2021/01/19 11:15:09;;;;;;;9.13;5.63;;;2.40;99.90;;;;;;5030826;28;20494;-68
2021/01/19 11:17:36;;;;;;;9.57;5.65;;;2.60;99.90;;;;;;5030218;28;20037;-68
2021/01/19 11:20:04;;;;;;;10.88;5.15;;;2.70;99.90;;;;;;5041074;28;20360;-68
2021/01/19 11:22:32;;;;;;;10.88;5.10;;;2.80;99.90;;;;;;5032598;28;20048;-68
2021/01/19 11:24:58;;;;;;;;;;;2.80;99.90;;;;;;5035187;28;20095;-67
2021/01/19 11:27:25;;;;;;;4.97;4.05;;;2.70;99.90;;;;;;5033852;28;19917;-68
2021/01/19 11:29:52;;;;;;;6.70;4.65;;;2.80;99.90;;;;;;5034423;28;20052;-68
2021/01/19 11:32:18;;;;;;;7.93;4.53;;;2.80;99.90;;;;;;5033685;28;20053;-68
2021/01/19 11:34:45;;;;;;;8.55;4.88;;;2.80;99.90;;;;;;5040578;28;20116;-68
2021/01/19 11:37:13;;;;;;;9.40;4.53;;;2.80;99.90;;;;;;5054579;28;20045;-68
2021/01/19 11:39:40;;;;;;;8.10;4.78;;;2.90;99.90;;;;;;5051067;28;20381;-68
2021/01/19 11:42:06;;;;;;;7.72;4.82;;;3.00;99.90;;;;;;5054874;28;20068;-68
2021/01/19 11:44:34;;;;;;;12.70;6.47;;;3.00;99.90;;;;;;5054142;28;20095;-68
2021/01/19 11:47:01;;;;;;;15.27;6.15;;;2.90;99.90;;;;;;5036115;28;20041;-69
2021/01/19 11:49:28;;;;;;;70.07;18.95;;;2.90;99.90;;;;;;5034189;28;20486;-68
2021/01/19 11:51:54;;;;;;;14.23;6.60;;;2.90;99.90;;;;;;5034536;28;20037;-67
2021/01/19 11:54:20;;;;;;;;;;;2.90;99.90;;;;;;5041422;28;20485;-68
2021/01/19 11:56:48;;;;;;;15.55;6.00;;;2.90;99.90;;;;;;5045166;28;19917;-67
2021/01/19 11:59:16;;;;;;;11.25;5.05;;;2.90;99.90;;;;;;5034233;28;20111;-68
2021/01/19 12:01:44;;;;;;;42.42;11.73;;;2.90;99.90;;;;;;5034171;28;20386;-68
2021/01/19 12:04:11;;;;;;;26.23;9.63;;;3.00;99.90;;;;;;5034882;28;20053;-68
2021/01/19 12:06:39;;;;;;;32.38;9.95;;;3.00;99.90;;;;;;5031880;28;20458;-68
2021/01/19 12:09:07;;;;;;;42.30;13.27;;;2.90;99.90;;;;;;5034815;28;20497;-67
2021/01/19 12:11:38;;;;;;;19.67;8.10;;;2.90;99.90;;;;;;5032774;28;20435;-68
2021/01/19 12:14:05;;;;;;;27.25;9.43;;;2.90;99.90;;;;;;5034414;28;20123;-69
2021/01/19 12:16:31;;;;;;;;;;;3.00;99.90;;;;;;5029116;28;20471;-67
2021/01/19 12:18:58;;;;;;;19.00;8.23;;;3.00;99.90;;;;;;5014308;28;20270;-69
2021/01/19 12:21:26;;;;;;;16.27;7.22;;;3.00;99.90;;;;;;5045300;28;20037;-71
2021/01/19 12:23:52;;;;;;;26.25;10.05;;;3.00;99.90;;;;;;5029501;28;20451;-68
2021/01/19 12:26:19;;;;;;;;;;;3.10;99.90;;;;;;5015892;28;20117;-68
2021/01/19 12:28:46;;;;;;;49.72;25.27;;;3.10;99.90;;;;;;5034478;28;19916;-70
2021/01/19 12:31:12;;;;;;;;;;;3.10;99.90;;;;;;5032892;28;20057;-69
2021/01/19 12:33:40;;;;;;;27.70;9.57;;;3.10;99.90;;;;;;5032740;28;19924;-69
2021/01/19 12:36:07;;;;;;;15.02;6.10;;;3.20;99.90;;;;;;5033989;28;20107;-68
2021/01/19 12:38:34;;;;;;;23.90;11.07;;;3.10;99.90;;;;;;5032873;28;20033;-68
2021/01/19 12:41:00;;;;;;;;;;;3.10;99.90;;;;;;5038087;28;20045;-68
2021/01/19 12:43:27;;;;;;;31.45;9.88;;;3.20;99.90;;;;;;5032234;28;20374;-68
2021/01/19 12:45:54;;;;;;;17.13;8.48;;;3.10;99.90;;;;;;5032956;28;20550;-68
2021/01/19 12:48:21;;;;;;;21.00;8.85;;;3.20;99.90;;;;;;5052842;28;20465;-68
2021/01/19 12:50:48;;;;;;;18.30;8.20;;;3.20;99.90;;;;;;5033182;28;20037;-68
2021/01/19 12:53:16;;;;;;;18.23;8.75;;;3.20;99.90;;;;;;5035158;28;20064;-69
2021/01/19 12:55:42;;;;;;;20.25;8.38;;;3.20;99.90;;;;;;5049679;28;20038;-69
2021/01/19 12:58:08;;;;;;;;;;;3.20;99.90;;;;;;5050549;28;20374;-68
2021/01/19 13:00:35;;;;;;;70.53;19.33;;;3.20;99.90;;;;;;5044179;28;19916;-68
2021/01/19 13:03:02;;;;;;;37.13;14.35;;;3.20;99.90;;;;;;5048581;28;20037;-71
2021/01/19 13:05:28;;;;;;;50.08;15.70;;;3.20;99.90;;;;;;5032384;28;20497;-70